Fort Klamath, Oregon
Current Conditions -  °F | °C
As of 8:53 PM on Monday 20 Oct 2014 (Local Time) from KLMT Reporting Station
Moderate Rain Moderate Rain  
Wind Chill:   Ceiling: 2200
Heat Index:   Visibility: 10mi
Dew Point:   Wind: 12mph
Humidity: 82%   Direction: 250°WSW
Pressure: 29.95"   Gusts: NA
Location:  42.7°N, 122°W
Report Text: KLMT 210353Z 25010KT 10SM RA SCT016 BKN022 OVC037 07/04 A2995 RMK AO2 SLP128 P0005 T00670039
Loading
Personal Weather Stations






























Interactive Weather Map
Tropical Storm Tracking
New forecast layout! Learn more

10-Day Weather Forecast

Advertisements
Track Severe Weather on mobile